Time;durP1;ratioP1;P1;durP2;ratioP2;P2;SDS_P1;SDS_P2;PMS_P1;PMS_P2;Temp;Humidity;BMP_temperature;BMP_pressure;BME280_temperature;BME280_humidity;BME280_pressure;Samples;Min_cycle;Max_cycle;Signal;HPM_P1;HPM_P2
2021/12/31 00:01:52;;;;;;;259.77;124.45;;;;;;;;;;4738472;30;20476;-81
2021/12/31 00:04:38;;;;;;;233.25;108.40;;;;;;;;;;4744813;30;20389;-80
2021/12/31 00:07:24;;;;;;;244.23;113.07;;;;;;;;;;4748425;30;20044;-80
2021/12/31 00:10:10;;;;;;;247.90;112.88;;;;;;;;;;4758817;30;20048;-81
2021/12/31 00:12:56;;;;;;;215.15;102.30;;;;;;;;;;4757235;30;20438;-79
2021/12/31 00:15:42;;;;;;;203.77;98.50;;;;;;;;;;4757208;30;20069;-79
2021/12/31 00:18:27;;;;;;;198.63;94.03;;;;;;;;;;4766511;30;20048;-81
2021/12/31 00:21:13;;;;;;;193.50;91.05;;;;;;;;;;4758272;30;20044;-81
2021/12/31 00:23:59;;;;;;;125.97;60.38;;;;;;;;;;4753608;30;20043;-81
2021/12/31 00:26:44;;;;;;;99.00;44.92;;;;;;;;;;4746584;30;20048;-81
2021/12/31 00:29:29;;;;;;;84.00;40.90;;;;;;;;;;4753950;30;20067;-81
2021/12/31 00:32:18;;;;;;;53.95;28.85;;;;;;;;;;4746228;30;20393;-79
2021/12/31 00:35:04;;;;;;;49.85;24.38;;;;;;;;;;4754503;30;20044;-80
2021/12/31 00:37:49;;;;;;;36.15;21.55;;;;;;;;;;4754739;30;20489;-81
2021/12/31 00:40:35;;;;;;;48.13;25.85;;;;;;;;;;4754742;30;20052;-81
2021/12/31 00:43:21;;;;;;;90.78;37.83;;;;;;;;;;4747485;30;20048;-81
2021/12/31 00:46:06;;;;;;;260.58;103.07;;;;;;;;;;4747051;30;20048;-81
2021/12/31 00:48:51;;;;;;;148.68;61.25;;;;;;;;;;4754828;30;20051;-81
2021/12/31 00:51:37;;;;;;;163.35;64.35;;;;;;;;;;4754202;30;20048;-80
2021/12/31 00:54:26;;;;;;;179.30;78.93;;;;;;;;;;4734686;30;20385;-80
2021/12/31 00:57:11;;;;;;;121.80;55.20;;;;;;;;;;4734688;30;20044;-80
2021/12/31 00:59:57;;;;;;;71.72;34.65;;;;;;;;;;4759084;30;20052;-81
2021/12/31 01:02:45;;;;;;;91.28;40.10;;;;;;;;;;4754544;30;20040;-82
2021/12/31 01:05:31;;;;;;;178.60;84.68;;;;;;;;;;4759049;30;20056;-82
2021/12/31 01:08:17;;;;;;;189.23;89.88;;;;;;;;;;4771923;30;20468;-80
2021/12/31 01:11:02;;;;;;;201.25;101.60;;;;;;;;;;4770267;30;20052;-80
2021/12/31 01:13:56;;;;;;;243.75;121.13;;;;;;;;;;4734186;30;20055;-80
2021/12/31 01:16:48;;;;;;;226.60;116.45;;;;;;;;;;4771612;30;20044;-80
2021/12/31 01:19:48;;;;;;;229.45;113.65;;;;;;;;;;4753706;30;20044;-81
2021/12/31 01:22:34;;;;;;;235.35;119.45;;;;;;;;;;4771343;30;20048;-81
2021/12/31 01:25:19;;;;;;;243.25;124.75;;;;;;;;;;4754179;30;20044;-80
2021/12/31 01:28:05;;;;;;;253.18;127.05;;;;;;;;;;4740401;30;20048;-82
2021/12/31 01:30:50;;;;;;;245.23;125.05;;;;;;;;;;4759991;30;20394;-81
2021/12/31 01:33:36;;;;;;;212.35;105.70;;;;;;;;;;4770763;30;20047;-81
2021/12/31 01:36:22;;;;;;;178.90;91.70;;;;;;;;;;4759505;30;20048;-81
2021/12/31 01:39:07;;;;;;;172.25;85.30;;;;;;;;;;4760006;30;20408;-80
2021/12/31 01:41:57;;;;;;;181.10;94.38;;;;;;;;;;4753325;30;20048;-80
2021/12/31 01:44:52;;;;;;;176.13;90.30;;;;;;;;;;4760297;30;20041;-81
2021/12/31 01:47:58;;;;;;;176.48;91.93;;;;;;;;;;4733146;30;20053;-81
2021/12/31 01:50:43;;;;;;;170.02;86.95;;;;;;;;;;4747241;30;20064;-79
2021/12/31 01:53:29;;;;;;;182.38;91.63;;;;;;;;;;4741633;30;20044;-79
2021/12/31 01:56:17;;;;;;;180.75;89.78;;;;;;;;;;4747882;30;20044;-80
2021/12/31 01:59:07;;;;;;;203.98;100.95;;;;;;;;;;4753098;30;20044;-79
2021/12/31 02:01:53;;;;;;;215.10;105.28;;;;;;;;;;4747720;30;20049;-79
2021/12/31 02:04:40;;;;;;;207.98;105.57;;;;;;;;;;4751487;30;20048;-80
2021/12/31 02:07:26;;;;;;;198.43;101.85;;;;;;;;;;4755383;30;20045;-80
2021/12/31 02:10:12;;;;;;;210.77;100.10;;;;;;;;;;4750569;30;20053;-82
2021/12/31 02:12:58;;;;;;;176.27;87.25;;;;;;;;;;4742106;30;20052;-80
2021/12/31 02:15:44;;;;;;;165.38;81.25;;;;;;;;;;4748790;30;20044;-79
2021/12/31 02:18:30;;;;;;;186.27;86.38;;;;;;;;;;4739685;30;20044;-80
2021/12/31 02:21:16;;;;;;;257.38;118.68;;;;;;;;;;4733233;30;20045;-81
2021/12/31 02:24:06;;;;;;;284.70;126.35;;;;;;;;;;4725933;30;20041;-80
2021/12/31 02:26:51;;;;;;;274.15;125.13;;;;;;;;;;4733525;30;20417;-80
2021/12/31 02:29:37;;;;;;;202.93;91.60;;;;;;;;;;4734467;30;20044;-79
2021/12/31 02:32:22;;;;;;;208.73;77.80;;;;;;;;;;4736279;30;20117;-80
2021/12/31 02:35:09;;;;;;;135.73;48.63;;;;;;;;;;4735782;30;20052;-80
2021/12/31 02:37:56;;;;;;;203.73;67.55;;;;;;;;;;4740801;30;20466;-81
2021/12/31 02:40:41;;;;;;;150.25;59.92;;;;;;;;;;4741424;30;20060;-80
2021/12/31 02:43:27;;;;;;;162.07;56.97;;;;;;;;;;4741234;30;20048;-80
2021/12/31 02:46:12;;;;;;;162.52;58.83;;;;;;;;;;4735520;30;20052;-79
2021/12/31 02:48:58;;;;;;;154.43;51.78;;;;;;;;;;4728070;30;20393;-79
2021/12/31 02:51:43;;;;;;;189.90;60.15;;;;;;;;;;4735990;30;20044;-80
2021/12/31 02:54:32;;;;;;;220.57;64.63;;;;;;;;;;4746394;30;20053;-79
2021/12/31 02:57:18;;;;;;;242.45;67.38;;;;;;;;;;4743136;30;20048;-78
2021/12/31 03:00:06;;;;;;;187.18;63.58;;;;;;;;;;4743633;30;20053;-78
2021/12/31 03:02:52;;;;;;;226.32;70.60;;;;;;;;;;4735588;30;20053;-81
2021/12/31 03:05:38;;;;;;;176.20;65.90;;;;;;;;;;4734813;30;20040;-79
2021/12/31 03:08:27;;;;;;;260.17;72.90;;;;;;;;;;4735652;30;20048;-79
2021/12/31 03:11:14;;;;;;;217.48;64.05;;;;;;;;;;4739161;30;20049;-81
2021/12/31 03:14:01;;;;;;;189.70;69.78;;;;;;;;;;4741597;30;20052;-78
2021/12/31 03:16:47;;;;;;;176.18;65.47;;;;;;;;;;4735331;30;20049;-81
2021/12/31 03:19:33;;;;;;;185.73;64.32;;;;;;;;;;4741008;30;20056;-80
2021/12/31 03:22:19;;;;;;;169.57;60.92;;;;;;;;;;4735411;30;20044;-81
2021/12/31 03:25:05;;;;;;;158.95;58.20;;;;;;;;;;4721723;30;20041;-80
2021/12/31 03:27:50;;;;;;;184.00;59.40;;;;;;;;;;4735357;30;20397;-82
2021/12/31 03:30:34;;;;;;;132.45;55.78;;;;;;;;;;4735084;30;20049;-80
2021/12/31 03:33:20;;;;;;;155.05;58.60;;;;;;;;;;4740517;30;20210;-80
2021/12/31 03:36:06;;;;;;;158.93;61.95;;;;;;;;;;4737273;30;20061;-80
2021/12/31 03:38:51;;;;;;;133.68;57.10;;;;;;;;;;4744263;30;20057;-80
2021/12/31 03:41:38;;;;;;;170.93;81.05;;;;;;;;;;4738394;30;20049;-80
2021/12/31 03:44:23;;;;;;;158.50;62.97;;;;;;;;;;4738062;30;20053;-80
2021/12/31 03:47:09;;;;;;;128.23;54.97;;;;;;;;;;4743582;30;20045;-80
2021/12/31 03:49:54;;;;;;;133.43;55.50;;;;;;;;;;4744009;30;20060;-81
2021/12/31 03:52:40;;;;;;;148.00;57.10;;;;;;;;;;4744171;30;20057;-81
2021/12/31 03:55:26;;;;;;;159.85;59.00;;;;;;;;;;4743270;30;20079;-80
2021/12/31 03:58:11;;;;;;;125.18;53.55;;;;;;;;;;4738091;30;20053;-81
2021/12/31 04:00:57;;;;;;;154.05;62.58;;;;;;;;;;4743042;30;20048;-82
2021/12/31 04:03:42;;;;;;;150.27;59.63;;;;;;;;;;4744111;30;20048;-81
2021/12/31 04:06:28;;;;;;;150.90;59.88;;;;;;;;;;4737699;30;20064;-81
2021/12/31 04:09:13;;;;;;;149.13;58.33;;;;;;;;;;4743038;30;20056;-80
2021/12/31 04:11:59;;;;;;;113.22;48.45;;;;;;;;;;4740082;30;20049;-80
2021/12/31 04:14:45;;;;;;;102.18;48.17;;;;;;;;;;4743283;30;20053;-80
2021/12/31 04:17:30;;;;;;;88.15;42.88;;;;;;;;;;4737415;30;20048;-81
2021/12/31 04:20:21;;;;;;;88.70;42.17;;;;;;;;;;4737483;30;20470;-80
2021/12/31 04:23:14;;;;;;;67.45;36.03;;;;;;;;;;4743071;30;20057;-80
2021/12/31 04:25:59;;;;;;;70.60;35.60;;;;;;;;;;4743309;30;20048;-81
2021/12/31 04:28:45;;;;;;;70.13;36.15;;;;;;;;;;4736908;30;20381;-79
2021/12/31 04:31:30;;;;;;;73.25;36.95;;;;;;;;;;4737517;30;20048;-81
2021/12/31 04:34:17;;;;;;;67.45;35.92;;;;;;;;;;4743182;30;20052;-80
2021/12/31 04:37:01;;;;;;;176.20;91.25;;;;;;;;;;4742580;30;20052;-82
2021/12/31 04:39:47;;;;;;;213.10;111.72;;;;;;;;;;4736904;30;20474;-81
2021/12/31 04:42:33;;;;;;;104.85;48.17;;;;;;;;;;4742714;30;20044;-81
2021/12/31 04:45:18;;;;;;;66.53;34.45;;;;;;;;;;4737092;30;20045;-80
2021/12/31 04:48:04;;;;;;;70.47;38.20;;;;;;;;;;4735784;30;20052;-80
2021/12/31 04:50:50;;;;;;;63.42;35.92;;;;;;;;;;4742692;30;20474;-81
2021/12/31 04:53:35;;;;;;;70.10;35.85;;;;;;;;;;4737131;30;20044;-81
2021/12/31 04:56:21;;;;;;;72.78;35.35;;;;;;;;;;4729109;30;20389;-81
2021/12/31 04:59:06;;;;;;;73.00;36.25;;;;;;;;;;4723713;30;20048;-81
2021/12/31 05:01:51;;;;;;;58.78;31.50;;;;;;;;;;4736974;30;20048;-81
2021/12/31 05:04:36;;;;;;;80.88;38.40;;;;;;;;;;4736536;30;20053;-81
2021/12/31 05:07:22;;;;;;;76.13;37.33;;;;;;;;;;4743261;30;20057;-81
2021/12/31 05:10:08;;;;;;;78.78;40.15;;;;;;;;;;4723315;30;20044;-80
2021/12/31 05:12:56;;;;;;;66.80;33.03;;;;;;;;;;4736183;30;20049;-80
2021/12/31 05:15:46;;;;;;;78.45;38.55;;;;;;;;;;4736554;30;20048;-81
2021/12/31 05:18:31;;;;;;;76.07;38.92;;;;;;;;;;4736008;30;20049;-81
2021/12/31 05:21:17;;;;;;;80.07;38.90;;;;;;;;;;4736417;30;20052;-79
2021/12/31 05:24:02;;;;;;;75.18;36.85;;;;;;;;;;4736238;30;20041;-81
2021/12/31 05:26:48;;;;;;;83.72;39.33;;;;;;;;;;4742203;30;20481;-80
2021/12/31 05:29:34;;;;;;;82.75;40.25;;;;;;;;;;4742429;30;20045;-80
2021/12/31 05:32:20;;;;;;;79.22;39.67;;;;;;;;;;4741287;30;20056;-81
2021/12/31 05:35:06;;;;;;;77.63;39.20;;;;;;;;;;4750362;30;20053;-81
2021/12/31 05:37:52;;;;;;;90.80;44.25;;;;;;;;;;4732124;30;20048;-79
2021/12/31 05:40:38;;;;;;;93.55;45.80;;;;;;;;;;4751167;30;20053;-78
2021/12/31 05:43:23;;;;;;;83.97;44.00;;;;;;;;;;4753671;30;20048;-81
2021/12/31 05:46:09;;;;;;;91.72;45.45;;;;;;;;;;4756621;30;20043;-80
2021/12/31 05:48:54;;;;;;;86.43;44.90;;;;;;;;;;4756075;30;20047;-79
2021/12/31 05:51:40;;;;;;;82.82;43.25;;;;;;;;;;4758197;30;20044;-79
2021/12/31 05:54:26;;;;;;;84.47;41.08;;;;;;;;;;4744844;30;20044;-81
2021/12/31 05:57:11;;;;;;;80.18;42.10;;;;;;;;;;4752320;30;20052;-80
2021/12/31 05:59:57;;;;;;;90.10;43.55;;;;;;;;;;4739669;30;20392;-81
2021/12/31 06:02:42;;;;;;;102.45;48.45;;;;;;;;;;4759409;30;20389;-80
2021/12/31 06:05:27;;;;;;;105.40;48.58;;;;;;;;;;4743525;30;20056;-78
2021/12/31 06:08:13;;;;;;;92.97;44.17;;;;;;;;;;4735209;30;20493;-80
2021/12/31 06:10:58;;;;;;;91.55;45.35;;;;;;;;;;4745493;30;20385;-78
2021/12/31 06:19:00;;;;;;;78.47;36.10;;;;;;;;;;4686934;30;20046;-84
2021/12/31 06:27:56;;;;;;;82.75;38.45;;;;;;;;;;4553953;31;20057;-86
2021/12/31 06:30:41;;;;;;;72.95;37.03;;;;;;;;;;4504619;31;20659;-82
2021/12/31 06:33:27;;;;;;;68.30;35.80;;;;;;;;;;4539539;31;20446;-84
2021/12/31 06:36:13;;;;;;;103.63;37.67;;;;;;;;;;4611027;30;20058;-83
2021/12/31 06:39:02;;;;;;;66.63;34.72;;;;;;;;;;4718633;30;20052;-84
2021/12/31 06:45:43;;;;;;;84.70;42.80;;;;;;;;;;4754456;30;20376;-84
2021/12/31 06:49:14;;;;;;;90.05;46.60;;;;;;;;;;4740420;30;20040;-85
2021/12/31 07:00:55;;;;;;;367.17;175.60;;;;;;;;;;4777454;29;20036;-84
2021/12/31 07:04:04;;;;;;;364.98;162.02;;;;;;;;;;4775811;29;20048;-84
2021/12/31 07:47:20;;;;;;;104.85;50.90;;;;;;;;;;5166257;24;20059;-82
2021/12/31 07:50:06;;;;;;;149.90;75.97;;;;;;;;;;4753757;30;20044;-82
2021/12/31 07:52:51;;;;;;;151.40;73.85;;;;;;;;;;4748639;30;20052;-83
2021/12/31 07:55:36;;;;;;;142.43;75.93;;;;;;;;;;4748427;30;20060;-81
2021/12/31 07:58:24;;;;;;;135.90;68.25;;;;;;;;;;4748356;30;20044;-83
2021/12/31 08:01:09;;;;;;;153.75;70.55;;;;;;;;;;4746611;30;20044;-83
2021/12/31 08:03:55;;;;;;;149.15;78.95;;;;;;;;;;4737732;30;20056;-83
2021/12/31 08:06:40;;;;;;;139.73;72.22;;;;;;;;;;4742927;30;20041;-83
2021/12/31 08:09:25;;;;;;;98.18;45.47;;;;;;;;;;4738850;30;20489;-80
2021/12/31 08:12:10;;;;;;;121.10;61.38;;;;;;;;;;4737886;30;20049;-84
2021/12/31 08:14:56;;;;;;;97.78;53.63;;;;;;;;;;4740967;30;20041;-83
2021/12/31 08:17:42;;;;;;;86.68;44.42;;;;;;;;;;4742382;30;20048;-84
2021/12/31 08:20:27;;;;;;;107.05;55.38;;;;;;;;;;4758149;30;20049;-80
2021/12/31 08:23:13;;;;;;;79.50;40.38;;;;;;;;;;4757554;30;20044;-84
2021/12/31 08:26:01;;;;;;;95.22;49.08;;;;;;;;;;4770942;30;20040;-84
2021/12/31 08:28:47;;;;;;;87.80;47.42;;;;;;;;;;4737094;30;20396;-82
2021/12/31 08:31:32;;;;;;;87.97;50.63;;;;;;;;;;4738464;30;20389;-82
2021/12/31 08:34:28;;;;;;;87.47;47.80;;;;;;;;;;4761327;30;20044;-83
2021/12/31 08:37:13;;;;;;;79.68;42.22;;;;;;;;;;4759992;30;20040;-83
2021/12/31 08:39:59;;;;;;;81.90;44.20;;;;;;;;;;4755357;30;20048;-82
2021/12/31 08:42:45;;;;;;;83.63;42.40;;;;;;;;;;4735775;30;20048;-83
2021/12/31 08:45:31;;;;;;;86.07;46.15;;;;;;;;;;4755467;30;20052;-83
2021/12/31 08:48:20;;;;;;;93.40;48.45;;;;;;;;;;4741219;30;20052;-84
2021/12/31 08:51:10;;;;;;;79.55;40.53;;;;;;;;;;4755090;30;20052;-84
2021/12/31 08:53:56;;;;;;;105.35;53.28;;;;;;;;;;4755311;30;20040;-84
2021/12/31 08:56:50;;;;;;;108.47;56.33;;;;;;;;;;4747172;30;20044;-83
2021/12/31 08:59:38;;;;;;;110.35;55.45;;;;;;;;;;4742022;30;20048;-86
2021/12/31 09:02:23;;;;;;;95.28;51.13;;;;;;;;;;4755961;30;20052;-86
2021/12/31 09:05:10;;;;;;;119.18;59.42;;;;;;;;;;4756341;30;20048;-85
2021/12/31 09:07:57;;;;;;;113.82;63.10;;;;;;;;;;4756031;30;20048;-86
2021/12/31 09:10:42;;;;;;;120.35;66.63;;;;;;;;;;4748166;30;20035;-82
2021/12/31 09:13:28;;;;;;;114.88;61.47;;;;;;;;;;4760422;30;20047;-81
2021/12/31 09:16:14;;;;;;;124.30;64.90;;;;;;;;;;4761542;30;20052;-82
2021/12/31 09:18:59;;;;;;;109.85;58.08;;;;;;;;;;4747010;30;20473;-82
2021/12/31 09:21:44;;;;;;;101.47;55.65;;;;;;;;;;4746808;30;20039;-83
2021/12/31 09:24:29;;;;;;;94.90;52.40;;;;;;;;;;4759881;30;20044;-84
2021/12/31 09:27:14;;;;;;;104.50;55.95;;;;;;;;;;4759933;30;20052;-82
2021/12/31 09:29:59;;;;;;;110.22;62.88;;;;;;;;;;4753892;30;20048;-83
2021/12/31 09:32:44;;;;;;;117.43;63.95;;;;;;;;;;4746275;30;20384;-83
2021/12/31 09:35:31;;;;;;;109.63;60.88;;;;;;;;;;4740311;30;20036;-83
2021/12/31 09:38:16;;;;;;;125.82;69.05;;;;;;;;;;4746230;30;20051;-82
2021/12/31 09:41:02;;;;;;;130.15;69.38;;;;;;;;;;4746885;30;20052;-82
2021/12/31 09:43:52;;;;;;;115.70;66.32;;;;;;;;;;4759703;30;20092;-83
2021/12/31 09:46:58;;;;;;;149.25;78.65;;;;;;;;;;4742056;30;20889;-84
2021/12/31 09:49:52;;;;;;;;;;;;;;;;;;4737227;30;20041;-83
2021/12/31 09:52:39;;;;;;;187.70;93.18;;;;;;;;;;4753351;30;19924;-83
2021/12/31 09:55:39;;;;;;;179.57;99.30;;;;;;;;;;4744156;30;20044;-84
2021/12/31 09:58:27;;;;;;;196.90;107.72;;;;;;;;;;4728855;30;20043;-84
2021/12/31 10:01:13;;;;;;;195.30;107.93;;;;;;;;;;4740872;30;20040;-84
2021/12/31 10:04:02;;;;;;;207.13;120.47;;;;;;;;;;4729054;30;20048;-83
2021/12/31 10:07:06;;;;;;;208.35;117.22;;;;;;;;;;4737521;30;20057;-83
2021/12/31 10:10:07;;;;;;;206.32;114.07;;;;;;;;;;4728977;30;20045;-84
2021/12/31 10:12:56;;;;;;;207.18;116.85;;;;;;;;;;4729233;30;20374;-84
2021/12/31 10:15:42;;;;;;;222.75;124.70;;;;;;;;;;4729874;30;20048;-84
2021/12/31 10:18:36;;;;;;;217.63;120.28;;;;;;;;;;4729129;30;20053;-83
2021/12/31 10:21:34;;;;;;;187.05;103.53;;;;;;;;;;4729296;30;20481;-84
2021/12/31 10:24:25;;;;;;;201.70;109.45;;;;;;;;;;4731476;30;20048;-83
2021/12/31 10:27:14;;;;;;;187.23;100.47;;;;;;;;;;4723249;30;20052;-83
2021/12/31 10:30:07;;;;;;;183.32;93.80;;;;;;;;;;4730036;30;20041;-84
2021/12/31 10:32:57;;;;;;;186.98;102.57;;;;;;;;;;4729236;30;20044;-83
2021/12/31 10:35:48;;;;;;;275.10;171.05;;;;;;;;;;4747060;30;20044;-84
2021/12/31 10:38:37;;;;;;;203.73;113.25;;;;;;;;;;4760053;30;20365;-83
2021/12/31 10:41:22;;;;;;;181.85;101.75;;;;;;;;;;4733309;30;20048;-84
2021/12/31 10:44:07;;;;;;;175.43;106.60;;;;;;;;;;4758891;30;20048;-83
2021/12/31 10:47:11;;;;;;;486.45;305.50;;;;;;;;;;4769875;30;20052;-83
2021/12/31 10:50:02;;;;;;;320.60;161.52;;;;;;;;;;4762357;30;20056;-83
2021/12/31 10:53:00;;;;;;;305.00;153.85;;;;;;;;;;4750264;30;20117;-84
2021/12/31 10:55:46;;;;;;;186.13;99.38;;;;;;;;;;4765709;30;20052;-84
2021/12/31 10:58:32;;;;;;;164.02;89.38;;;;;;;;;;4748469;30;20048;-81
2021/12/31 11:01:27;;;;;;;;;;;;;;;;;;4766664;30;20052;-79
2021/12/31 11:04:12;;;;;;;;;;;;;;;;;;4766933;30;19918;-84
2021/12/31 11:06:59;;;;;;;222.85;123.85;;;;;;;;;;4764232;30;19918;-84
2021/12/31 11:09:45;;;;;;;215.07;118.97;;;;;;;;;;4743364;30;20059;-84
2021/12/31 11:12:32;;;;;;;182.60;105.18;;;;;;;;;;4762150;30;20044;-84
2021/12/31 11:15:17;;;;;;;195.15;116.18;;;;;;;;;;4738666;30;20052;-83
2021/12/31 11:18:02;;;;;;;201.82;111.47;;;;;;;;;;4726278;30;20044;-82
2021/12/31 11:20:48;;;;;;;197.98;112.57;;;;;;;;;;4752347;30;20048;-83
2021/12/31 11:23:34;;;;;;;178.25;109.95;;;;;;;;;;4757421;30;20052;-83
2021/12/31 11:26:28;;;;;;;114.35;65.60;;;;;;;;;;4762320;30;20067;-83
2021/12/31 11:29:15;;;;;;;113.43;61.08;;;;;;;;;;4748218;30;20056;-83
2021/12/31 11:32:02;;;;;;;147.73;77.20;;;;;;;;;;4770546;30;20469;-82
2021/12/31 11:35:25;;;;;;;167.73;90.60;;;;;;;;;;4754860;30;20048;-82
2021/12/31 11:38:22;;;;;;;168.52;96.72;;;;;;;;;;4757089;30;20052;-83
2021/12/31 11:41:12;;;;;;;;;;;;;;;;;;4764948;30;20060;-82
2021/12/31 11:44:09;;;;;;;134.45;77.43;;;;;;;;;;4730969;30;19915;-84
2021/12/31 11:47:12;;;;;;;141.88;79.55;;;;;;;;;;4743687;30;20044;-82
2021/12/31 11:50:24;;;;;;;141.25;85.13;;;;;;;;;;4750103;30;20041;-83
2021/12/31 11:53:10;;;;;;;123.68;75.88;;;;;;;;;;4745562;30;20487;-86
2021/12/31 11:55:57;;;;;;;138.52;79.50;;;;;;;;;;4753314;30;20044;-83
2021/12/31 11:58:43;;;;;;;139.60;77.43;;;;;;;;;;4732393;30;20048;-83
2021/12/31 12:01:48;;;;;;;125.82;66.68;;;;;;;;;;4740464;30;20044;-83
2021/12/31 12:04:41;;;;;;;123.63;67.47;;;;;;;;;;4744965;30;20468;-82
2021/12/31 12:07:47;;;;;;;114.20;61.15;;;;;;;;;;4746410;30;20056;-82
2021/12/31 12:10:37;;;;;;;;;;;;;;;;;;4750541;30;20041;-82
2021/12/31 12:13:25;;;;;;;122.18;63.88;;;;;;;;;;4756558;30;19918;-82
2021/12/31 12:16:10;;;;;;;111.78;56.67;;;;;;;;;;4763874;30;20473;-84
2021/12/31 12:18:56;;;;;;;117.75;60.63;;;;;;;;;;4744354;30;20044;-82
2021/12/31 12:21:42;;;;;;;109.47;53.55;;;;;;;;;;4751588;30;20070;-84
2021/12/31 12:24:27;;;;;;;86.43;46.10;;;;;;;;;;4745832;30;20052;-82
2021/12/31 12:27:13;;;;;;;88.32;46.60;;;;;;;;;;4739311;30;20044;-80
2021/12/31 12:30:02;;;;;;;84.90;45.70;;;;;;;;;;4745230;30;20029;-82
2021/12/31 12:35:41;;;;;;;48.65;27.70;;;;;;;;;;4744199;30;20049;-81
2021/12/31 12:38:30;;;;;;;30.73;19.40;;;;;;;;;;4736934;30;20792;-83
2021/12/31 12:41:20;;;;;;;37.45;24.42;;;;;;;;;;4743921;30;20052;-82
2021/12/31 12:44:09;;;;;;;45.97;26.55;;;;;;;;;;4742948;30;20052;-81
2021/12/31 12:46:58;;;;;;;58.30;30.55;;;;;;;;;;4727178;30;20065;-83
2021/12/31 12:49:54;;;;;;;95.68;55.75;;;;;;;;;;4745392;30;20052;-82
2021/12/31 12:52:40;;;;;;;89.63;47.20;;;;;;;;;;4723612;30;20044;-82
2021/12/31 12:55:28;;;;;;;81.00;44.38;;;;;;;;;;4742678;30;20048;-82
2021/12/31 12:58:21;;;;;;;52.38;32.42;;;;;;;;;;4756846;30;20044;-81
2021/12/31 13:01:07;;;;;;;38.78;21.85;;;;;;;;;;4759742;30;20052;-81
2021/12/31 13:03:54;;;;;;;52.13;25.05;;;;;;;;;;4759610;30;20056;-82
2021/12/31 13:06:53;;;;;;;80.70;36.58;;;;;;;;;;4759247;30;20044;-82
2021/12/31 13:09:38;;;;;;;57.15;29.05;;;;;;;;;;4758643;30;20489;-82
2021/12/31 13:12:24;;;;;;;87.65;42.22;;;;;;;;;;4748198;30;20040;-81
2021/12/31 13:15:09;;;;;;;58.72;32.08;;;;;;;;;;4759595;30;20183;-81
2021/12/31 13:18:05;;;;;;;100.95;49.42;;;;;;;;;;4759518;30;20056;-82
2021/12/31 13:21:02;;;;;;;78.60;38.85;;;;;;;;;;4758893;30;20048;-82
2021/12/31 13:23:53;;;;;;;64.38;34.13;;;;;;;;;;4753274;30;20477;-82
2021/12/31 13:26:37;;;;;;;82.38;45.55;;;;;;;;;;4754297;30;20048;-81
2021/12/31 13:29:31;;;;;;;54.53;35.47;;;;;;;;;;4753869;30;20060;-81
2021/12/31 13:32:19;;;;;;;39.55;23.40;;;;;;;;;;4759470;30;20048;-81
2021/12/31 13:35:06;;;;;;;41.13;25.20;;;;;;;;;;4754761;30;20048;-81
2021/12/31 13:38:03;;;;;;;46.53;26.15;;;;;;;;;;4756813;30;20044;-81
2021/12/31 13:40:49;;;;;;;45.05;28.60;;;;;;;;;;4763868;30;20056;-79
2021/12/31 13:43:36;;;;;;;53.33;29.17;;;;;;;;;;4764928;30;20055;-83
2021/12/31 13:46:37;;;;;;;58.13;34.40;;;;;;;;;;4754209;30;20060;-80
2021/12/31 13:49:24;;;;;;;69.45;38.50;;;;;;;;;;4759976;30;20056;-79
2021/12/31 13:52:46;;;;;;;77.72;44.08;;;;;;;;;;4758929;30;20051;-81
2021/12/31 13:55:32;;;;;;;74.45;43.30;;;;;;;;;;4738909;30;20044;-83
2021/12/31 13:58:27;;;;;;;91.90;47.58;;;;;;;;;;4753395;30;20044;-82
2021/12/31 14:01:12;;;;;;;87.22;47.35;;;;;;;;;;4753515;30;20052;-80
2021/12/31 14:04:10;;;;;;;83.57;47.80;;;;;;;;;;4759439;30;20040;-82
2021/12/31 14:07:01;;;;;;;88.47;48.67;;;;;;;;;;4752660;30;20044;-81
2021/12/31 14:09:49;;;;;;;90.50;49.20;;;;;;;;;;4752988;30;20048;-81
2021/12/31 14:12:57;;;;;;;95.30;50.70;;;;;;;;;;4752688;30;20051;-81
2021/12/31 14:15:43;;;;;;;96.68;49.50;;;;;;;;;;4753138;30;20048;-81
2021/12/31 14:18:28;;;;;;;88.65;46.10;;;;;;;;;;4752918;30;20048;-82
2021/12/31 14:21:14;;;;;;;91.10;46.72;;;;;;;;;;4758241;30;20044;-81
2021/12/31 14:23:59;;;;;;;106.05;50.00;;;;;;;;;;4753680;30;20060;-81
2021/12/31 14:26:45;;;;;;;140.50;72.20;;;;;;;;;;4758619;30;20056;-81
2021/12/31 14:29:30;;;;;;;121.80;61.17;;;;;;;;;;4752761;30;20059;-80
2021/12/31 14:32:16;;;;;;;112.88;60.75;;;;;;;;;;4753456;30;20048;-81
2021/12/31 14:35:03;;;;;;;215.75;114.97;;;;;;;;;;4751839;30;20046;-80
2021/12/31 14:37:48;;;;;;;192.02;117.20;;;;;;;;;;4751752;30;20060;-82
2021/12/31 14:40:36;;;;;;;186.85;110.10;;;;;;;;;;4757459;30;20484;-81
2021/12/31 14:43:21;;;;;;;163.75;95.10;;;;;;;;;;4752899;30;20048;-82
2021/12/31 14:46:07;;;;;;;191.50;115.65;;;;;;;;;;4761411;30;20055;-83
2021/12/31 14:48:52;;;;;;;239.02;133.43;;;;;;;;;;4746797;30;20056;-81
2021/12/31 14:51:37;;;;;;;191.70;106.45;;;;;;;;;;4757799;30;20051;-80
2021/12/31 14:54:23;;;;;;;204.25;127.30;;;;;;;;;;4758638;30;20487;-82
2021/12/31 14:57:10;;;;;;;179.85;106.97;;;;;;;;;;4758110;30;20048;-82
2021/12/31 14:59:55;;;;;;;188.48;119.00;;;;;;;;;;4749213;30;20048;-80
2021/12/31 15:02:40;;;;;;;180.93;113.78;;;;;;;;;;4734757;30;20045;-82
2021/12/31 15:05:26;;;;;;;122.60;70.50;;;;;;;;;;4735330;30;20056;-79
2021/12/31 15:08:14;;;;;;;125.38;73.25;;;;;;;;;;4737837;30;20392;-80
2021/12/31 15:10:59;;;;;;;193.18;117.32;;;;;;;;;;4739183;30;20052;-81
2021/12/31 15:13:44;;;;;;;146.90;87.53;;;;;;;;;;4750370;30;20052;-80
2021/12/31 15:16:29;;;;;;;217.55;130.85;;;;;;;;;;4757094;30;20048;-81
2021/12/31 15:19:15;;;;;;;247.77;144.38;;;;;;;;;;4739860;30;20350;-80
2021/12/31 15:22:02;;;;;;;332.77;189.52;;;;;;;;;;4743705;30;20049;-79
2021/12/31 15:24:48;;;;;;;360.90;220.20;;;;;;;;;;4736049;30;20044;-80
2021/12/31 15:27:34;;;;;;;390.55;232.55;;;;;;;;;;4748193;30;20130;-80
2021/12/31 15:30:19;;;;;;;371.92;220.20;;;;;;;;;;4755780;30;20060;-81
2021/12/31 15:33:05;;;;;;;351.60;207.43;;;;;;;;;;4755617;30;20048;-80
2021/12/31 15:35:50;;;;;;;361.45;214.30;;;;;;;;;;4755545;30;20048;-81
2021/12/31 15:38:36;;;;;;;331.80;198.65;;;;;;;;;;4752495;30;20044;-80
2021/12/31 15:41:21;;;;;;;345.80;205.55;;;;;;;;;;4761052;30;20052;-79
2021/12/31 15:44:08;;;;;;;354.58;212.45;;;;;;;;;;4761593;30;20052;-80
2021/12/31 15:46:54;;;;;;;368.27;225.10;;;;;;;;;;4760388;30;20457;-79
2021/12/31 15:49:39;;;;;;;439.52;260.40;;;;;;;;;;4755226;30;20064;-78
2021/12/31 15:52:26;;;;;;;448.02;270.35;;;;;;;;;;4741525;30;20048;-80
2021/12/31 15:55:10;;;;;;;452.02;271.75;;;;;;;;;;4751792;30;20044;-79
2021/12/31 15:57:56;;;;;;;423.75;259.35;;;;;;;;;;4762171;30;20052;-79
2021/12/31 16:00:42;;;;;;;430.73;258.00;;;;;;;;;;4764102;30;20044;-80
2021/12/31 16:03:27;;;;;;;446.33;290.50;;;;;;;;;;4756441;30;20048;-79
2021/12/31 16:06:13;;;;;;;450.50;293.65;;;;;;;;;;4755113;30;20473;-82
2021/12/31 16:08:58;;;;;;;416.98;265.10;;;;;;;;;;4748327;30;20056;-79
2021/12/31 16:11:44;;;;;;;411.80;247.68;;;;;;;;;;4743158;30;20040;-81
2021/12/31 16:14:30;;;;;;;380.45;225.57;;;;;;;;;;4754897;30;20056;-83
2021/12/31 16:17:16;;;;;;;388.90;237.70;;;;;;;;;;4755087;30;20056;-80
2021/12/31 16:20:02;;;;;;;401.48;240.88;;;;;;;;;;4763331;30;20052;-80
2021/12/31 16:22:48;;;;;;;401.40;236.65;;;;;;;;;;4749052;30;20040;-77
2021/12/31 16:25:33;;;;;;;397.23;242.40;;;;;;;;;;4756395;30;20056;-77
2021/12/31 16:28:19;;;;;;;402.92;241.88;;;;;;;;;;4747048;30;20052;-78
2021/12/31 16:31:04;;;;;;;422.17;262.85;;;;;;;;;;4743144;30;20052;-78
2021/12/31 16:33:50;;;;;;;492.85;314.60;;;;;;;;;;4729697;30;20147;-78
2021/12/31 16:36:35;;;;;;;513.60;328.73;;;;;;;;;;4736930;30;20044;-77
2021/12/31 16:39:21;;;;;;;515.03;323.58;;;;;;;;;;4742093;30;20041;-76
2021/12/31 16:42:07;;;;;;;421.58;251.88;;;;;;;;;;4736700;30;20053;-79
2021/12/31 16:44:54;;;;;;;411.25;249.27;;;;;;;;;;4732872;30;20053;-79
2021/12/31 16:47:40;;;;;;;425.10;256.40;;;;;;;;;;4749610;30;20489;-78
2021/12/31 16:50:25;;;;;;;437.52;267.85;;;;;;;;;;4767067;30;20481;-77
2021/12/31 16:53:11;;;;;;;537.03;351.48;;;;;;;;;;4741429;30;20029;-76
2021/12/31 16:55:56;;;;;;;633.15;429.02;;;;;;;;;;4747682;30;20048;-77
2021/12/31 16:58:42;;;;;;;486.05;326.55;;;;;;;;;;4760001;30;20044;-80
2021/12/31 17:01:28;;;;;;;515.05;342.08;;;;;;;;;;4756807;30;20381;-77
2021/12/31 17:04:13;;;;;;;423.23;272.25;;;;;;;;;;4725509;30;20052;-79
2021/12/31 17:06:59;;;;;;;435.25;280.80;;;;;;;;;;4748443;30;20477;-77
2021/12/31 17:09:50;;;;;;;335.85;195.43;;;;;;;;;;4749936;30;20036;-77
2021/12/31 17:12:39;;;;;;;411.85;250.40;;;;;;;;;;4729104;30;20052;-78